createdAt,value
2023-02-20T00:01:57.857Z,1.52
2023-02-20T00:04:46.723Z,2.03
2023-02-20T00:07:33.716Z,1.80
2023-02-20T00:10:20.611Z,1.90
2023-02-20T00:13:07.550Z,2.10
2023-02-20T00:15:54.459Z,1.70
2023-02-20T00:18:41.600Z,2.00
2023-02-20T00:21:28.441Z,2.00
2023-02-20T00:24:16.478Z,1.90
2023-02-20T00:27:03.433Z,2.00
2023-02-20T00:29:50.200Z,1.93
2023-02-20T00:32:36.999Z,1.75
2023-02-20T00:35:25.825Z,1.42
2023-02-20T00:38:12.651Z,1.67
2023-02-20T00:40:59.455Z,1.27
2023-02-20T00:43:46.306Z,1.40
2023-02-20T00:46:33.322Z,1.33
2023-02-20T00:49:20.279Z,1.45
2023-02-20T00:52:07.093Z,1.70
2023-02-20T00:54:54.041Z,1.67
2023-02-20T00:57:40.910Z,1.57
2023-02-20T01:00:29.744Z,1.60
2023-02-20T01:03:16.634Z,1.70
2023-02-20T01:06:03.620Z,1.47
2023-02-20T01:08:50.783Z,1.60
2023-02-20T01:11:37.831Z,1.70
2023-02-20T01:14:25.231Z,1.52
2023-02-20T01:17:13.885Z,1.55
2023-02-20T01:20:00.720Z,1.67
2023-02-20T01:22:47.627Z,1.77
2023-02-20T01:25:34.457Z,2.00
2023-02-20T01:28:21.375Z,1.70
2023-02-20T01:31:08.296Z,1.90
2023-02-20T01:33:55.135Z,1.70
2023-02-20T01:36:50.827Z,1.95
2023-02-20T01:39:37.699Z,1.70
2023-02-20T01:42:28.663Z,1.93
2023-02-20T01:45:22.799Z,1.90
2023-02-20T01:48:27.511Z,1.70
2023-02-20T01:51:14.574Z,1.70
2023-02-20T01:54:01.857Z,1.85
2023-02-20T01:56:49.839Z,1.95
2023-02-20T01:59:41.467Z,1.55
2023-02-20T02:02:32.209Z,1.70
2023-02-20T02:05:19.845Z,1.83
2023-02-20T02:08:09.967Z,1.80
2023-02-20T02:11:09.972Z,1.80
2023-02-20T02:13:57.013Z,1.80
2023-02-20T02:17:19.184Z,2.00
2023-02-20T02:20:26.648Z,1.73
2023-02-20T02:23:34.797Z,1.73
2023-02-20T02:26:51.395Z,1.80
2023-02-20T02:29:58.769Z,1.75
2023-02-20T02:33:20.604Z,3.40
2023-02-20T02:36:25.228Z,4.95
2023-02-20T02:39:21.206Z,7.07
2023-02-20T02:42:11.084Z,9.23
2023-02-20T02:45:12.494Z,7.80
2023-02-20T02:48:16.922Z,6.38
2023-02-20T02:51:19.297Z,6.32
2023-02-20T02:54:22.384Z,5.45
2023-02-20T02:57:26.010Z,3.30
2023-02-20T03:00:15.931Z,2.70
2023-02-20T03:03:33.205Z,2.92
2023-02-20T03:06:30.685Z,2.97
2023-02-20T03:09:25.725Z,2.80
2023-02-20T03:12:13.706Z,2.50
2023-02-20T03:15:24.719Z,2.55
2023-02-20T03:18:11.551Z,2.20
2023-02-20T03:21:05.644Z,2.33
2023-02-20T03:23:59.848Z,2.00
2023-02-20T03:26:48.406Z,2.13
2023-02-20T03:29:37.767Z,1.80
2023-02-20T03:32:47.994Z,1.98
2023-02-20T03:35:57.141Z,2.00
2023-02-20T03:39:08.540Z,2.10
2023-02-20T03:42:17.467Z,2.20
2023-02-20T03:47:56.630Z,2.35
2023-02-20T03:50:43.817Z,1.90
2023-02-20T03:53:30.986Z,1.92
2023-02-20T03:56:36.987Z,1.92
2023-02-20T03:59:29.578Z,2.00
2023-02-20T04:02:34.591Z,4.60
2023-02-20T04:05:26.293Z,2.63
2023-02-20T04:08:24.510Z,2.80
2023-02-20T04:11:23.994Z,2.30
2023-02-20T04:14:13.080Z,2.28
2023-02-20T04:17:06.973Z,4.35
2023-02-20T04:19:54.639Z,3.28
2023-02-20T04:22:47.110Z,4.43
2023-02-20T04:25:39.750Z,2.83
2023-02-20T04:28:26.917Z,3.30
2023-02-20T04:31:15.921Z,3.10
2023-02-20T04:34:02.830Z,2.50
2023-02-20T04:36:52.331Z,2.40
2023-02-20T04:39:39.218Z,2.20
2023-02-20T04:42:26.056Z,2.00
2023-02-20T04:45:12.821Z,2.83
2023-02-20T04:47:59.611Z,2.15
2023-02-20T04:50:46.410Z,2.17
2023-02-20T04:53:33.319Z,2.30
2023-02-20T04:56:20.094Z,2.30
2023-02-20T04:59:07.054Z,3.08
2023-02-20T05:01:54.914Z,3.22
2023-02-20T05:07:28.513Z,3.00
2023-02-20T05:10:21.029Z,2.95
2023-02-20T05:13:07.916Z,2.72
2023-02-20T05:15:54.796Z,2.70
2023-02-20T05:18:41.695Z,2.47
2023-02-20T05:21:47.698Z,2.90
2023-02-20T05:24:34.695Z,2.15
2023-02-20T05:27:23.082Z,2.30
2023-02-20T05:30:10.573Z,2.15
2023-02-20T05:32:58.298Z,2.80
2023-02-20T05:35:45.102Z,3.00
2023-02-20T05:38:32.016Z,2.60
2023-02-20T05:41:19.461Z,2.20
2023-02-20T05:44:06.328Z,2.00
2023-02-20T05:46:54.335Z,2.20
2023-02-20T05:49:41.180Z,2.28
2023-02-20T05:52:27.997Z,2.50
2023-02-20T05:55:14.854Z,2.83
2023-02-20T05:58:01.678Z,2.13
2023-02-20T06:00:48.497Z,2.40
2023-02-20T06:03:37.267Z,2.13
2023-02-20T06:06:31.428Z,2.33
2023-02-20T06:09:18.315Z,2.50
2023-02-20T06:12:05.414Z,2.30
2023-02-20T06:14:52.309Z,2.55
2023-02-20T06:17:39.163Z,2.63
2023-02-20T06:20:26.095Z,2.93
2023-02-20T06:23:13.123Z,2.70
2023-02-20T06:26:00.003Z,2.40
2023-02-20T06:28:50.224Z,2.27
2023-02-20T06:31:37.533Z,9.13
2023-02-20T06:34:25.765Z,7.95
2023-02-20T06:37:12.860Z,4.03
2023-02-20T06:40:00.042Z,3.15
2023-02-20T06:42:46.866Z,2.75
2023-02-20T06:45:33.770Z,2.87
2023-02-20T06:48:20.651Z,2.77
2023-02-20T06:51:07.514Z,2.70
2023-02-20T06:53:54.324Z,1.67
2023-02-20T06:56:41.148Z,2.28
2023-02-20T06:59:28.563Z,2.60
2023-02-20T07:02:16.299Z,2.90
2023-02-20T07:07:51.309Z,5.45
2023-02-20T07:10:38.085Z,4.32
2023-02-20T07:13:24.976Z,3.67
2023-02-20T07:16:12.382Z,4.07
2023-02-20T07:18:59.557Z,5.55
2023-02-20T07:21:49.435Z,5.50
2023-02-20T07:24:36.969Z,5.53
2023-02-20T07:27:23.885Z,4.57
2023-02-20T07:30:11.514Z,4.60
2023-02-20T07:32:58.377Z,6.18
2023-02-20T07:35:45.864Z,5.95
2023-02-20T07:38:32.673Z,6.00
2023-02-20T07:41:19.600Z,5.07
2023-02-20T07:44:06.621Z,4.20
2023-02-20T07:46:53.467Z,3.78
2023-02-20T07:49:40.239Z,2.90
2023-02-20T07:52:27.102Z,2.60
2023-02-20T07:55:19.020Z,1.90
2023-02-20T07:58:05.977Z,2.20
2023-02-20T08:00:54.132Z,2.27
2023-02-20T08:03:41.781Z,3.20
2023-02-20T08:06:29.095Z,3.08
2023-02-20T08:09:15.972Z,3.67
2023-02-20T08:12:02.882Z,3.63
2023-02-20T08:14:53.265Z,3.53
2023-02-20T08:17:47.026Z,4.25
2023-02-20T08:20:34.339Z,5.53
2023-02-20T08:23:23.088Z,5.83
2023-02-20T08:26:09.956Z,6.00
2023-02-20T08:28:56.781Z,4.70
2023-02-20T08:31:44.187Z,4.20
2023-02-20T08:34:31.080Z,3.63
2023-02-20T08:37:17.931Z,3.35
2023-02-20T08:40:08.205Z,2.70
2023-02-20T08:42:55.162Z,3.10
2023-02-20T08:45:41.982Z,2.80
2023-02-20T08:48:29.445Z,2.60
2023-02-20T08:51:20.557Z,2.17
2023-02-20T08:54:07.449Z,2.00
2023-02-20T08:56:54.302Z,2.10
2023-02-20T08:59:41.296Z,1.92
2023-02-20T09:02:31.078Z,2.30
2023-02-20T09:05:18.489Z,2.33
2023-02-20T09:08:05.491Z,2.10
2023-02-20T09:10:52.323Z,2.42
2023-02-20T09:13:44.227Z,2.00
2023-02-20T09:16:31.117Z,2.67
2023-02-20T09:19:18.115Z,2.13
2023-02-20T09:22:05.268Z,2.17
2023-02-20T09:24:53.285Z,1.88
2023-02-20T09:27:40.192Z,2.00
2023-02-20T09:30:27.566Z,1.80
2023-02-20T09:33:14.437Z,1.80
2023-02-20T09:36:01.486Z,2.00
2023-02-20T09:38:48.328Z,1.65
2023-02-20T09:41:41.108Z,2.00
2023-02-20T09:44:45.558Z,2.03
2023-02-20T09:47:47.728Z,1.60
2023-02-20T09:50:45.762Z,1.38
2023-02-20T09:54:04.003Z,1.80
2023-02-20T09:56:58.386Z,1.40
2023-02-20T09:59:50.744Z,1.20
2023-02-20T10:02:46.581Z,1.27
2023-02-20T10:05:34.662Z,1.00
2023-02-20T10:08:23.719Z,1.10
2023-02-20T10:11:24.957Z,1.27
2023-02-20T10:14:29.949Z,1.48
2023-02-20T10:17:34.421Z,1.25
2023-02-20T10:20:35.126Z,1.20
2023-02-20T10:24:05.004Z,1.27
2023-02-20T10:26:59.701Z,1.23
2023-02-20T10:29:47.342Z,0.88
2023-02-20T10:32:57.183Z,0.80
2023-02-20T10:36:22.979Z,0.80
2023-02-20T10:39:16.031Z,0.77
2023-02-20T10:42:19.363Z,0.75
2023-02-20T10:45:13.230Z,0.63
2023-02-20T10:48:03.167Z,0.65
2023-02-20T10:51:40.692Z,0.65
2023-02-20T10:54:44.860Z,0.70
2023-02-20T10:57:47.170Z,0.80
2023-02-20T11:00:47.611Z,0.60
2023-02-20T11:03:37.782Z,0.70
2023-02-20T11:06:36.661Z,0.70
2023-02-20T11:09:23.691Z,0.60
2023-02-20T11:12:27.718Z,0.85
2023-02-20T11:15:24.404Z,0.70
2023-02-20T11:21:07.839Z,0.60
2023-02-20T11:23:56.846Z,0.60
2023-02-20T11:26:43.914Z,0.75
2023-02-20T11:29:37.987Z,0.80
2023-02-20T11:32:29.739Z,0.68
2023-02-20T11:35:19.388Z,0.80
2023-02-20T11:38:17.447Z,0.57
2023-02-20T11:41:07.460Z,0.70
2023-02-20T11:44:20.345Z,0.70
2023-02-20T11:47:28.595Z,1.00
2023-02-20T11:50:21.032Z,0.90
2023-02-20T11:53:19.771Z,1.73
2023-02-20T11:56:14.031Z,1.30
2023-02-20T11:59:31.034Z,1.02
2023-02-20T12:02:18.162Z,0.77
2023-02-20T12:05:11.404Z,0.10
2023-02-20T12:08:00.482Z,0.22
2023-02-20T12:10:54.664Z,0.20
2023-02-20T12:13:47.455Z,0.22
2023-02-20T12:16:49.358Z,0.50
2023-02-20T12:20:08.573Z,0.30
2023-02-20T12:23:02.904Z,0.30
2023-02-20T12:26:06.118Z,0.20
2023-02-20T12:29:27.728Z,0.20
2023-02-20T12:32:38.409Z,0.30
2023-02-20T12:35:33.805Z,0.40
2023-02-20T12:38:38.863Z,0.25
2023-02-20T12:42:07.562Z,0.20
2023-02-20T12:45:17.855Z,0.22
2023-02-20T12:48:22.891Z,0.30
2023-02-20T12:51:27.862Z,0.20
2023-02-20T12:54:40.562Z,0.20
2023-02-20T12:57:46.432Z,0.10
2023-02-20T13:00:41.278Z,0.30
2023-02-20T13:03:55.035Z,0.20
2023-02-20T13:07:06.215Z,0.40
2023-02-20T13:10:22.103Z,0.73
2023-02-20T13:13:11.352Z,0.20
2023-02-20T13:16:14.108Z,0.20
2023-02-20T13:19:38.298Z,0.20
2023-02-20T13:22:25.244Z,0.10
2023-02-20T13:25:31.800Z,0.20
2023-02-20T13:28:43.000Z,0.10
2023-02-20T13:31:35.679Z,0.20
2023-02-20T13:34:22.652Z,0.20
2023-02-20T13:37:36.281Z,0.10
2023-02-20T13:40:29.157Z,0.30
2023-02-20T13:43:15.900Z,0.20
2023-02-20T13:46:14.562Z,0.20
2023-02-20T13:49:02.566Z,0.40
2023-02-20T13:51:49.768Z,0.38
2023-02-20T13:54:36.616Z,0.30
2023-02-20T13:57:23.742Z,0.32
2023-02-20T14:00:25.772Z,0.30
2023-02-20T14:03:31.020Z,0.40
2023-02-20T14:06:19.249Z,0.40
2023-02-20T14:09:19.801Z,0.50
2023-02-20T14:12:13.592Z,0.20
2023-02-20T14:15:04.807Z,0.30
2023-02-20T14:17:53.584Z,0.40
2023-02-20T14:20:40.684Z,0.40
2023-02-20T14:23:29.429Z,0.30
2023-02-20T14:26:29.711Z,0.38
2023-02-20T14:29:27.850Z,0.25
2023-02-20T14:32:15.256Z,0.30
2023-02-20T14:35:05.373Z,0.35
2023-02-20T14:38:01.404Z,0.50
2023-02-20T14:40:48.793Z,0.25
2023-02-20T14:43:35.640Z,0.45
2023-02-20T14:46:25.831Z,0.30
2023-02-20T14:49:15.565Z,0.43
2023-02-20T14:52:12.180Z,0.45
2023-02-20T14:55:15.974Z,0.60
2023-02-20T14:58:14.737Z,0.47
2023-02-20T15:01:01.667Z,0.43
2023-02-20T15:04:02.340Z,0.60
2023-02-20T15:06:52.056Z,0.40
2023-02-20T15:09:44.158Z,0.30
2023-02-20T15:12:39.491Z,0.40
2023-02-20T15:15:26.405Z,0.40
2023-02-20T15:18:17.646Z,0.50
2023-02-20T15:21:05.460Z,0.30
2023-02-20T15:26:39.228Z,0.50
2023-02-20T15:29:28.338Z,0.47
2023-02-20T15:32:25.859Z,0.45
2023-02-20T15:35:20.460Z,0.52
2023-02-20T15:38:09.445Z,0.50
2023-02-20T15:40:58.466Z,1.10
2023-02-20T15:43:49.106Z,3.10
2023-02-20T15:46:38.067Z,1.70
2023-02-20T15:49:25.058Z,1.10
2023-02-20T15:52:19.104Z,0.73
2023-02-20T15:55:06.239Z,0.50
2023-02-20T15:57:56.876Z,0.60
2023-02-20T16:00:43.864Z,0.57
2023-02-20T16:03:41.857Z,0.40
2023-02-20T16:06:36.348Z,0.55
2023-02-20T16:09:23.150Z,0.50
2023-02-20T16:12:28.499Z,0.60
2023-02-20T16:15:17.277Z,1.40
2023-02-20T16:18:04.196Z,0.90
2023-02-20T16:20:52.799Z,0.90
2023-02-20T16:23:41.017Z,0.60
2023-02-20T16:26:31.016Z,0.77
2023-02-20T16:29:21.307Z,0.52
2023-02-20T16:32:16.583Z,0.63
2023-02-20T16:35:03.927Z,1.95
2023-02-20T16:37:50.799Z,1.30
2023-02-20T16:40:37.924Z,0.93
2023-02-20T16:43:24.811Z,0.60
2023-02-20T16:46:11.933Z,0.90
2023-02-20T16:49:00.797Z,6.55
2023-02-20T16:51:58.981Z,8.80
2023-02-20T16:54:47.802Z,4.38
2023-02-20T16:57:34.609Z,2.20
2023-02-20T17:00:25.500Z,1.70
2023-02-20T17:03:12.667Z,2.30
2023-02-20T17:05:59.742Z,9.75
2023-02-20T17:08:46.675Z,19.17
2023-02-20T17:11:33.559Z,19.07
2023-02-20T17:14:20.369Z,14.80
2023-02-20T17:17:08.237Z,5.63
2023-02-20T17:22:50.413Z,1.50
2023-02-20T17:25:39.755Z,1.38
2023-02-20T17:28:26.591Z,1.20
2023-02-20T17:31:13.719Z,2.10
2023-02-20T17:34:00.695Z,15.55
2023-02-20T17:36:51.275Z,13.63
2023-02-20T17:39:39.108Z,9.50
2023-02-20T17:45:14.710Z,9.70
2023-02-20T17:48:02.858Z,7.63
2023-02-20T17:50:49.742Z,5.32
2023-02-20T17:53:36.532Z,6.30
2023-02-20T17:56:23.846Z,4.68
2023-02-20T17:59:11.153Z,6.95
2023-02-20T18:01:58.085Z,8.60
2023-02-20T18:04:45.140Z,6.23
2023-02-20T18:07:32.234Z,2.80
2023-02-20T18:10:19.814Z,1.70
2023-02-20T18:13:06.691Z,1.70
2023-02-20T18:15:53.570Z,1.50
2023-02-20T18:18:41.436Z,2.10
2023-02-20T18:24:24.465Z,3.03
2023-02-20T18:27:12.260Z,3.10
2023-02-20T18:29:59.074Z,3.38
2023-02-20T18:32:45.936Z,3.40
2023-02-20T18:35:32.946Z,3.17
2023-02-20T18:38:19.752Z,3.20
2023-02-20T18:41:10.292Z,2.70
2023-02-20T18:43:57.080Z,2.80
2023-02-20T18:46:43.914Z,2.70
2023-02-20T18:49:30.786Z,2.58
2023-02-20T18:52:20.040Z,28.45
2023-02-20T18:55:07.022Z,16.25
2023-02-20T18:57:54.180Z,13.13
2023-02-20T19:00:41.128Z,4.15
2023-02-20T19:03:27.990Z,2.97
2023-02-20T19:06:44.583Z,3.45
2023-02-20T19:09:36.759Z,5.30
2023-02-20T19:12:23.559Z,5.35
2023-02-20T19:15:10.921Z,5.10
2023-02-20T19:17:57.922Z,6.45
2023-02-20T19:20:44.893Z,4.10
2023-02-20T19:23:31.733Z,3.43
2023-02-20T19:26:18.617Z,4.25
2023-02-20T19:29:05.904Z,6.20
2023-02-20T19:31:52.916Z,3.60
2023-02-20T19:34:39.835Z,2.22
2023-02-20T19:37:27.687Z,1.87
2023-02-20T19:43:01.261Z,2.17
2023-02-20T19:45:48.406Z,3.97
2023-02-20T19:48:35.291Z,3.15
2023-02-20T19:51:22.572Z,3.08
2023-02-20T19:54:09.886Z,3.10
2023-02-20T19:56:59.495Z,2.50
2023-02-20T19:59:46.504Z,2.30
2023-02-20T20:02:33.345Z,2.28
2023-02-20T20:05:20.550Z,2.20
2023-02-20T20:08:07.410Z,2.05
2023-02-20T20:10:54.211Z,1.92
2023-02-20T20:13:41.129Z,2.10
2023-02-20T20:16:28.047Z,1.80
2023-02-20T20:19:16.292Z,1.80
2023-02-20T20:22:03.197Z,1.83
2023-02-20T20:24:50.106Z,2.70
2023-02-20T20:27:37.713Z,2.93
2023-02-20T20:30:27.311Z,3.92
2023-02-20T20:33:14.243Z,4.00
2023-02-20T20:36:01.085Z,3.43
2023-02-20T20:38:47.983Z,3.35
2023-02-20T20:41:44.197Z,3.50
2023-02-20T20:44:31.717Z,3.67
2023-02-20T20:47:20.327Z,4.03
2023-02-20T20:50:07.539Z,3.67
2023-02-20T20:52:54.536Z,3.33
2023-02-20T20:55:41.371Z,3.37
2023-02-20T20:58:28.121Z,3.22
2023-02-20T21:01:17.609Z,3.10
2023-02-20T21:04:04.556Z,2.92
2023-02-20T21:06:51.362Z,3.10
2023-02-20T21:09:38.496Z,2.95
2023-02-20T21:12:25.318Z,3.08
2023-02-20T21:15:13.225Z,2.90
2023-02-20T21:20:48.183Z,3.00
2023-02-20T21:23:35.679Z,2.80
2023-02-20T21:26:22.572Z,3.13
2023-02-20T21:29:10.481Z,2.90
2023-02-20T21:34:46.533Z,3.00
2023-02-20T21:37:33.447Z,2.83
2023-02-20T21:40:20.285Z,2.65
2023-02-20T21:43:25.618Z,2.90
2023-02-20T21:46:12.544Z,2.63
2023-02-20T21:48:59.304Z,2.37
2023-02-20T21:51:46.321Z,2.40
2023-02-20T21:54:33.479Z,2.47
2023-02-20T21:57:20.721Z,2.70
2023-02-20T22:00:09.761Z,3.03
2023-02-20T22:02:56.583Z,2.53
2023-02-20T22:05:43.443Z,3.10
2023-02-20T22:08:48.937Z,2.60
2023-02-20T22:11:54.173Z,2.90
2023-02-20T22:14:59.430Z,4.32
2023-02-20T22:18:04.717Z,7.82
2023-02-20T22:21:10.001Z,8.20
2023-02-20T22:24:15.731Z,5.82
2023-02-20T22:27:21.240Z,4.45
2023-02-20T22:30:27.438Z,3.97
2023-02-20T22:33:32.945Z,3.85
2023-02-20T22:36:38.176Z,3.70
2023-02-20T22:39:43.331Z,3.22
2023-02-20T22:42:48.490Z,3.00
2023-02-20T22:45:53.761Z,2.70
2023-02-20T22:48:59.334Z,3.80
2023-02-20T22:52:09.358Z,4.13
2023-02-20T22:55:14.643Z,3.08
2023-02-20T22:58:19.985Z,2.75
2023-02-20T23:01:25.595Z,2.42
2023-02-20T23:04:30.906Z,2.67
2023-02-20T23:07:36.320Z,2.10
2023-02-20T23:10:41.510Z,2.10
2023-02-20T23:13:48.564Z,1.60
2023-02-20T23:16:54.301Z,1.55
2023-02-20T23:20:00.010Z,1.13
2023-02-20T23:23:05.918Z,1.02
2023-02-20T23:26:11.975Z,1.15
2023-02-20T23:29:17.341Z,1.10
2023-02-20T23:32:23.782Z,1.35
2023-02-20T23:35:29.585Z,1.27
2023-02-20T23:38:34.720Z,1.42
2023-02-20T23:41:40.097Z,1.60
2023-02-20T23:44:45.608Z,2.58
2023-02-20T23:47:50.866Z,2.92
2023-02-20T23:50:56.552Z,2.33
2023-02-20T23:54:02.464Z,1.90
2023-02-20T23:57:08.008Z,1.90
